sensor_id;sensor_type;location;lat;lon;timestamp;temperature;humidity
37658;DHT22;23500;53.268;8.308;2022-11-23T00:01:42;14.10;71.00
37658;DHT22;23500;53.268;8.308;2022-11-23T00:04:11;14.10;70.80
37658;DHT22;23500;53.268;8.308;2022-11-23T00:06:37;14.10;71.20
37658;DHT22;23500;53.268;8.308;2022-11-23T00:09:03;14.10;71.40
37658;DHT22;23500;53.268;8.308;2022-11-23T00:11:29;14.10;71.10
37658;DHT22;23500;53.268;8.308;2022-11-23T00:13:55;14.10;71.60
37658;DHT22;23500;53.268;8.308;2022-11-23T00:16:26;14.00;71.20
37658;DHT22;23500;53.268;8.308;2022-11-23T00:18:54;14.00;70.90
37658;DHT22;23500;53.268;8.308;2022-11-23T00:21:21;14.00;71.80
37658;DHT22;23500;53.268;8.308;2022-11-23T00:23:47;14.00;71.50
37658;DHT22;23500;53.268;8.308;2022-11-23T00:26:14;14.00;71.70
37658;DHT22;23500;53.268;8.308;2022-11-23T00:28:40;14.00;72.00
37658;DHT22;23500;53.268;8.308;2022-11-23T00:31:07;14.00;71.80
37658;DHT22;23500;53.268;8.308;2022-11-23T00:33:33;14.00;71.00
37658;DHT22;23500;53.268;8.308;2022-11-23T00:36:06;14.00;71.50
37658;DHT22;23500;53.268;8.308;2022-11-23T00:38:32;14.00;72.30
37658;DHT22;23500;53.268;8.308;2022-11-23T00:41:04;14.00;72.00
37658;DHT22;23500;53.268;8.308;2022-11-23T00:43:30;14.00;72.50
37658;DHT22;23500;53.268;8.308;2022-11-23T00:46:22;14.00;72.20
37658;DHT22;23500;53.268;8.308;2022-11-23T00:48:50;14.00;72.30
37658;DHT22;23500;53.268;8.308;2022-11-23T00:51:18;13.90;73.00
37658;DHT22;23500;53.268;8.308;2022-11-23T00:53:45;14.00;72.70
37658;DHT22;23500;53.268;8.308;2022-11-23T00:56:11;13.90;72.20
37658;DHT22;23500;53.268;8.308;2022-11-23T00:58:37;14.00;72.90
37658;DHT22;23500;53.268;8.308;2022-11-23T01:01:10;13.90;72.40
37658;DHT22;23500;53.268;8.308;2022-11-23T01:03:39;13.90;72.30
37658;DHT22;23500;53.268;8.308;2022-11-23T01:06:09;13.90;72.70
37658;DHT22;23500;53.268;8.308;2022-11-23T01:08:36;14.00;73.60
37658;DHT22;23500;53.268;8.308;2022-11-23T01:11:04;13.90;73.50
37658;DHT22;23500;53.268;8.308;2022-11-23T01:13:31;13.90;73.10
37658;DHT22;23500;53.268;8.308;2022-11-23T01:15:57;13.90;73.60
37658;DHT22;23500;53.268;8.308;2022-11-23T01:18:23;13.90;73.10
37658;DHT22;23500;53.268;8.308;2022-11-23T01:20:49;13.90;73.00
37658;DHT22;23500;53.268;8.308;2022-11-23T01:23:14;13.90;72.60
37658;DHT22;23500;53.268;8.308;2022-11-23T01:25:40;13.90;73.20
37658;DHT22;23500;53.268;8.308;2022-11-23T01:28:06;13.90;73.70
37658;DHT22;23500;53.268;8.308;2022-11-23T01:30:31;13.90;73.50
37658;DHT22;23500;53.268;8.308;2022-11-23T01:32:59;13.90;72.30
37658;DHT22;23500;53.268;8.308;2022-11-23T01:35:24;13.90;73.40
37658;DHT22;23500;53.268;8.308;2022-11-23T01:37:50;13.90;73.70
37658;DHT22;23500;53.268;8.308;2022-11-23T01:40:16;13.90;72.80
37658;DHT22;23500;53.268;8.308;2022-11-23T01:42:58;13.90;72.70
37658;DHT22;23500;53.268;8.308;2022-11-23T01:45:59;13.90;73.20
37658;DHT22;23500;53.268;8.308;2022-11-23T01:48:34;13.90;73.70
37658;DHT22;23500;53.268;8.308;2022-11-23T01:51:10;13.90;73.60
37658;DHT22;23500;53.268;8.308;2022-11-23T01:53:37;13.80;73.80
37658;DHT22;23500;53.268;8.308;2022-11-23T01:56:06;13.80;73.30
37658;DHT22;23500;53.268;8.308;2022-11-23T01:58:36;13.80;73.30
37658;DHT22;23500;53.268;8.308;2022-11-23T02:01:03;13.80;73.70
37658;DHT22;23500;53.268;8.308;2022-11-23T02:03:31;13.80;74.10
37658;DHT22;23500;53.268;8.308;2022-11-23T02:06:01;13.80;73.80
37658;DHT22;23500;53.268;8.308;2022-11-23T02:08:28;13.80;74.10
37658;DHT22;23500;53.268;8.308;2022-11-23T02:10:56;13.80;73.20
37658;DHT22;23500;53.268;8.308;2022-11-23T02:13:24;13.80;74.00
37658;DHT22;23500;53.268;8.308;2022-11-23T02:15:51;13.80;74.50
37658;DHT22;23500;53.268;8.308;2022-11-23T02:18:21;13.80;74.00
37658;DHT22;23500;53.268;8.308;2022-11-23T02:20:48;13.80;74.30
37658;DHT22;23500;53.268;8.308;2022-11-23T02:28:42;13.80;74.40
37658;DHT22;23500;53.268;8.308;2022-11-23T02:31:08;13.80;74.30
37658;DHT22;23500;53.268;8.308;2022-11-23T02:33:37;13.80;74.40
37658;DHT22;23500;53.268;8.308;2022-11-23T02:42:17;13.80;74.40
37658;DHT22;23500;53.268;8.308;2022-11-23T02:44:45;13.80;74.40
37658;DHT22;23500;53.268;8.308;2022-11-23T02:47:14;13.80;74.30
37658;DHT22;23500;53.268;8.308;2022-11-23T02:49:40;13.70;74.30
37658;DHT22;23500;53.268;8.308;2022-11-23T02:52:07;13.80;74.40
37658;DHT22;23500;53.268;8.308;2022-11-23T02:54:33;13.80;74.50
37658;DHT22;23500;53.268;8.308;2022-11-23T02:56:59;13.80;74.50
37658;DHT22;23500;53.268;8.308;2022-11-23T02:59:25;13.80;74.20
37658;DHT22;23500;53.268;8.308;2022-11-23T03:01:51;13.80;74.90
37658;DHT22;23500;53.268;8.308;2022-11-23T03:04:16;13.80;74.60
37658;DHT22;23500;53.268;8.308;2022-11-23T03:06:42;13.80;74.20
37658;DHT22;23500;53.268;8.308;2022-11-23T03:09:08;13.70;74.40
37658;DHT22;23500;53.268;8.308;2022-11-23T03:11:33;13.70;74.20
37658;DHT22;23500;53.268;8.308;2022-11-23T03:13:59;13.70;74.40
37658;DHT22;23500;53.268;8.308;2022-11-23T03:16:25;13.70;74.50
37658;DHT22;23500;53.268;8.308;2022-11-23T03:18:51;13.70;74.80
37658;DHT22;23500;53.268;8.308;2022-11-23T03:21:16;13.70;74.70
37658;DHT22;23500;53.268;8.308;2022-11-23T03:23:42;13.70;74.80
37658;DHT22;23500;53.268;8.308;2022-11-23T03:26:08;13.70;74.40
37658;DHT22;23500;53.268;8.308;2022-11-23T03:28:34;13.70;74.30
37658;DHT22;23500;53.268;8.308;2022-11-23T03:30:59;13.70;75.00
37658;DHT22;23500;53.268;8.308;2022-11-23T03:33:25;13.70;75.00
37658;DHT22;23500;53.268;8.308;2022-11-23T03:35:51;13.70;74.90
37658;DHT22;23500;53.268;8.308;2022-11-23T03:38:16;13.70;75.00
37658;DHT22;23500;53.268;8.308;2022-11-23T03:40:45;13.70;74.90
37658;DHT22;23500;53.268;8.308;2022-11-23T03:43:12;13.70;75.40
37658;DHT22;23500;53.268;8.308;2022-11-23T03:45:38;13.70;74.40
37658;DHT22;23500;53.268;8.308;2022-11-23T03:48:04;13.70;75.30
37658;DHT22;23500;53.268;8.308;2022-11-23T03:50:30;13.70;75.20
37658;DHT22;23500;53.268;8.308;2022-11-23T03:52:56;13.70;75.00
37658;DHT22;23500;53.268;8.308;2022-11-23T03:55:22;13.70;75.10
37658;DHT22;23500;53.268;8.308;2022-11-23T03:57:48;13.70;75.00
37658;DHT22;23500;53.268;8.308;2022-11-23T04:00:14;13.70;75.30
37658;DHT22;23500;53.268;8.308;2022-11-23T04:02:41;13.70;75.40
37658;DHT22;23500;53.268;8.308;2022-11-23T04:05:07;13.70;75.00
37658;DHT22;23500;53.268;8.308;2022-11-23T04:07:33;13.70;75.20
37658;DHT22;23500;53.268;8.308;2022-11-23T04:09:59;13.70;75.30
37658;DHT22;23500;53.268;8.308;2022-11-23T04:12:24;13.70;75.50
37658;DHT22;23500;53.268;8.308;2022-11-23T04:14:51;13.70;75.40
37658;DHT22;23500;53.268;8.308;2022-11-23T04:17:17;13.70;75.20
37658;DHT22;23500;53.268;8.308;2022-11-23T04:19:43;13.70;74.70
37658;DHT22;23500;53.268;8.308;2022-11-23T04:22:09;13.70;75.10
37658;DHT22;23500;53.268;8.308;2022-11-23T04:24:35;13.70;75.50
37658;DHT22;23500;53.268;8.308;2022-11-23T04:27:00;13.70;75.70
37658;DHT22;23500;53.268;8.308;2022-11-23T04:29:26;13.70;75.50
37658;DHT22;23500;53.268;8.308;2022-11-23T04:31:52;13.70;75.50
37658;DHT22;23500;53.268;8.308;2022-11-23T04:34:17;13.70;75.70
37658;DHT22;23500;53.268;8.308;2022-11-23T04:36:43;13.70;75.60
37658;DHT22;23500;53.268;8.308;2022-11-23T04:39:12;13.70;75.40
37658;DHT22;23500;53.268;8.308;2022-11-23T04:41:38;13.70;75.10
37658;DHT22;23500;53.268;8.308;2022-11-23T04:44:04;13.80;75.40
37658;DHT22;23500;53.268;8.308;2022-11-23T04:46:30;13.80;75.50
37658;DHT22;23500;53.268;8.308;2022-11-23T04:48:56;13.90;75.40
37658;DHT22;23500;53.268;8.308;2022-11-23T04:51:23;14.00;75.60
37658;DHT22;23500;53.268;8.308;2022-11-23T04:53:48;14.40;75.70
37658;DHT22;23500;53.268;8.308;2022-11-23T04:56:14;14.90;73.90
37658;DHT22;23500;53.268;8.308;2022-11-23T04:58:40;15.60;71.80
37658;DHT22;23500;53.268;8.308;2022-11-23T05:01:06;16.30;69.70
37658;DHT22;23500;53.268;8.308;2022-11-23T05:03:32;17.00;67.50
37658;DHT22;23500;53.268;8.308;2022-11-23T05:06:02;17.60;65.40
37658;DHT22;23500;53.268;8.308;2022-11-23T05:08:28;18.10;63.60
37658;DHT22;23500;53.268;8.308;2022-11-23T05:10:54;18.60;62.10
37658;DHT22;23500;53.268;8.308;2022-11-23T05:13:20;19.00;60.90
37658;DHT22;23500;53.268;8.308;2022-11-23T05:15:46;19.40;59.70
37658;DHT22;23500;53.268;8.308;2022-11-23T05:18:11;19.70;58.80
37658;DHT22;23500;53.268;8.308;2022-11-23T05:20:37;19.80;58.30
37658;DHT22;23500;53.268;8.308;2022-11-23T05:23:04;19.90;58.10
37658;DHT22;23500;53.268;8.308;2022-11-23T05:25:30;19.80;57.90
37658;DHT22;23500;53.268;8.308;2022-11-23T05:27:55;19.80;58.10
37658;DHT22;23500;53.268;8.308;2022-11-23T05:30:21;19.70;58.20
37658;DHT22;23500;53.268;8.308;2022-11-23T05:32:47;19.60;58.40
37658;DHT22;23500;53.268;8.308;2022-11-23T05:35:12;19.50;58.70
37658;DHT22;23500;53.268;8.308;2022-11-23T05:37:39;19.40;59.10
37658;DHT22;23500;53.268;8.308;2022-11-23T05:40:06;19.20;59.40
37658;DHT22;23500;53.268;8.308;2022-11-23T05:42:32;19.00;59.60
37658;DHT22;23500;53.268;8.308;2022-11-23T05:44:57;18.90;59.90
37658;DHT22;23500;53.268;8.308;2022-11-23T05:47:23;18.70;60.40
37658;DHT22;23500;53.268;8.308;2022-11-23T05:49:51;18.60;60.80
37658;DHT22;23500;53.268;8.308;2022-11-23T05:52:17;18.40;61.10
37658;DHT22;23500;53.268;8.308;2022-11-23T05:54:43;18.30;61.60
37658;DHT22;23500;53.268;8.308;2022-11-23T05:57:09;18.20;62.00
37658;DHT22;23500;53.268;8.308;2022-11-23T05:59:35;18.10;62.30
37658;DHT22;23500;53.268;8.308;2022-11-23T06:02:01;17.90;62.10
37658;DHT22;23500;53.268;8.308;2022-11-23T06:04:26;17.80;61.70
37658;DHT22;23500;53.268;8.308;2022-11-23T06:06:52;17.60;62.20
37658;DHT22;23500;53.268;8.308;2022-11-23T06:09:19;17.50;62.40
37658;DHT22;23500;53.268;8.308;2022-11-23T06:11:45;17.40;62.70
37658;DHT22;23500;53.268;8.308;2022-11-23T06:14:12;17.30;63.20
37658;DHT22;23500;53.268;8.308;2022-11-23T06:16:38;17.20;62.30
37658;DHT22;23500;53.268;8.308;2022-11-23T06:19:04;17.10;62.10
37658;DHT22;23500;53.268;8.308;2022-11-23T06:21:30;17.00;62.30
37658;DHT22;23500;53.268;8.308;2022-11-23T06:23:55;16.90;62.50
37658;DHT22;23500;53.268;8.308;2022-11-23T06:26:21;16.70;62.80
37658;DHT22;23500;53.268;8.308;2022-11-23T06:28:47;16.70;62.80
37658;DHT22;23500;53.268;8.308;2022-11-23T06:31:12;16.60;63.50
37658;DHT22;23500;53.268;8.308;2022-11-23T06:33:38;16.60;63.90
37658;DHT22;23500;53.268;8.308;2022-11-23T06:36:04;16.60;66.80
37658;DHT22;23500;53.268;8.308;2022-11-23T06:38:30;16.80;66.90
37658;DHT22;23500;53.268;8.308;2022-11-23T06:40:59;16.90;66.70
37658;DHT22;23500;53.268;8.308;2022-11-23T06:43:25;17.00;66.50
37658;DHT22;23500;53.268;8.308;2022-11-23T06:45:52;17.10;66.00
37658;DHT22;23500;53.268;8.308;2022-11-23T06:48:17;17.20;65.70
37658;DHT22;23500;53.268;8.308;2022-11-23T06:50:43;17.30;65.30
37658;DHT22;23500;53.268;8.308;2022-11-23T06:53:09;17.40;65.00
37658;DHT22;23500;53.268;8.308;2022-11-23T06:55:38;17.50;64.80
37658;DHT22;23500;53.268;8.308;2022-11-23T06:58:04;17.50;64.70
37658;DHT22;23500;53.268;8.308;2022-11-23T07:00:31;17.50;64.60
37658;DHT22;23500;53.268;8.308;2022-11-23T07:02:57;17.50;64.20
37658;DHT22;23500;53.268;8.308;2022-11-23T07:05:23;17.40;64.20
37658;DHT22;23500;53.268;8.308;2022-11-23T07:07:49;17.40;64.20
37658;DHT22;23500;53.268;8.308;2022-11-23T07:10:15;17.40;63.20
37658;DHT22;23500;53.268;8.308;2022-11-23T07:12:41;17.30;62.80
37658;DHT22;23500;53.268;8.308;2022-11-23T07:15:07;17.20;63.00
37658;DHT22;23500;53.268;8.308;2022-11-23T07:17:37;17.10;63.20
37658;DHT22;23500;53.268;8.308;2022-11-23T07:20:03;17.00;63.60
37658;DHT22;23500;53.268;8.308;2022-11-23T07:22:29;17.00;63.10
37658;DHT22;23500;53.268;8.308;2022-11-23T07:24:55;16.90;63.50
37658;DHT22;23500;53.268;8.308;2022-11-23T07:27:20;16.80;63.90
37658;DHT22;23500;53.268;8.308;2022-11-23T07:29:46;16.80;64.00
37658;DHT22;23500;53.268;8.308;2022-11-23T07:32:12;16.70;64.60
37658;DHT22;23500;53.268;8.308;2022-11-23T07:34:39;16.60;65.80
37658;DHT22;23500;53.268;8.308;2022-11-23T07:37:05;16.50;65.90
37658;DHT22;23500;53.268;8.308;2022-11-23T07:39:30;16.50;66.00
37658;DHT22;23500;53.268;8.308;2022-11-23T07:41:56;16.40;66.60
37658;DHT22;23500;53.268;8.308;2022-11-23T07:44:21;16.30;66.50
37658;DHT22;23500;53.268;8.308;2022-11-23T07:46:47;16.30;66.50
37658;DHT22;23500;53.268;8.308;2022-11-23T07:49:13;16.20;66.50
37658;DHT22;23500;53.268;8.308;2022-11-23T07:51:38;16.20;66.60
37658;DHT22;23500;53.268;8.308;2022-11-23T07:54:04;16.20;66.90
37658;DHT22;23500;53.268;8.308;2022-11-23T07:56:30;16.10;67.10
37658;DHT22;23500;53.268;8.308;2022-11-23T07:58:55;16.10;67.00
37658;DHT22;23500;53.268;8.308;2022-11-23T08:01:21;16.10;67.10
37658;DHT22;23500;53.268;8.308;2022-11-23T08:03:47;16.00;67.20
37658;DHT22;23500;53.268;8.308;2022-11-23T08:06:14;16.00;67.20
37658;DHT22;23500;53.268;8.308;2022-11-23T08:08:40;15.90;67.20
37658;DHT22;23500;53.268;8.308;2022-11-23T08:11:07;15.90;67.30
37658;DHT22;23500;53.268;8.308;2022-11-23T08:13:33;15.90;67.60
37658;DHT22;23500;53.268;8.308;2022-11-23T08:16:00;15.90;67.80
37658;DHT22;23500;53.268;8.308;2022-11-23T08:18:26;15.90;67.60
37658;DHT22;23500;53.268;8.308;2022-11-23T08:20:52;15.80;67.70
37658;DHT22;23500;53.268;8.308;2022-11-23T08:23:18;15.80;68.20
37658;DHT22;23500;53.268;8.308;2022-11-23T08:25:44;15.80;68.00
37658;DHT22;23500;53.268;8.308;2022-11-23T08:28:10;15.70;68.20
37658;DHT22;23500;53.268;8.308;2022-11-23T08:30:36;15.70;68.20
37658;DHT22;23500;53.268;8.308;2022-11-23T08:33:04;15.70;68.00
37658;DHT22;23500;53.268;8.308;2022-11-23T08:35:31;15.70;68.60
37658;DHT22;23500;53.268;8.308;2022-11-23T08:37:57;15.60;68.40
37658;DHT22;23500;53.268;8.308;2022-11-23T08:40:22;15.60;68.70
37658;DHT22;23500;53.268;8.308;2022-11-23T08:42:48;15.60;68.80
37658;DHT22;23500;53.268;8.308;2022-11-23T08:45:14;15.60;68.90
37658;DHT22;23500;53.268;8.308;2022-11-23T08:47:39;15.60;69.10
37658;DHT22;23500;53.268;8.308;2022-11-23T08:50:05;15.60;69.30
37658;DHT22;23500;53.268;8.308;2022-11-23T08:52:31;15.60;69.40
37658;DHT22;23500;53.268;8.308;2022-11-23T08:54:57;15.50;69.30
37658;DHT22;23500;53.268;8.308;2022-11-23T08:57:22;15.50;69.70
37658;DHT22;23500;53.268;8.308;2022-11-23T08:59:48;15.50;69.80
37658;DHT22;23500;53.268;8.308;2022-11-23T09:02:14;15.50;69.80
37658;DHT22;23500;53.268;8.308;2022-11-23T09:04:40;15.50;69.90
37658;DHT22;23500;53.268;8.308;2022-11-23T09:07:06;15.40;70.00
37658;DHT22;23500;53.268;8.308;2022-11-23T09:09:32;15.40;70.60
37658;DHT22;23500;53.268;8.308;2022-11-23T09:11:57;15.40;70.00
37658;DHT22;23500;53.268;8.308;2022-11-23T09:14:23;15.40;70.30
37658;DHT22;23500;53.268;8.308;2022-11-23T09:16:49;15.40;70.40
37658;DHT22;23500;53.268;8.308;2022-11-23T09:19:15;15.30;70.50
37658;DHT22;23500;53.268;8.308;2022-11-23T09:21:40;15.40;70.60
37658;DHT22;23500;53.268;8.308;2022-11-23T09:24:09;15.30;70.60
37658;DHT22;23500;53.268;8.308;2022-11-23T09:26:36;15.30;70.60
37658;DHT22;23500;53.268;8.308;2022-11-23T09:29:06;15.30;70.50
37658;DHT22;23500;53.268;8.308;2022-11-23T09:31:32;15.30;70.80
37658;DHT22;23500;53.268;8.308;2022-11-23T09:33:58;15.30;71.00
37658;DHT22;23500;53.268;8.308;2022-11-23T09:36:23;15.30;70.80
37658;DHT22;23500;53.268;8.308;2022-11-23T09:38:50;15.30;70.80
37658;DHT22;23500;53.268;8.308;2022-11-23T09:49:20;15.20;70.90
37658;DHT22;23500;53.268;8.308;2022-11-23T09:51:47;15.20;70.90
37658;DHT22;23500;53.268;8.308;2022-11-23T09:54:25;15.20;71.10
37658;DHT22;23500;53.268;8.308;2022-11-23T09:56:53;15.20;71.10
37658;DHT22;23500;53.268;8.308;2022-11-23T09:59:22;15.20;71.20
37658;DHT22;23500;53.268;8.308;2022-11-23T10:01:50;15.20;71.20
37658;DHT22;23500;53.268;8.308;2022-11-23T10:04:18;15.20;71.40
37658;DHT22;23500;53.268;8.308;2022-11-23T10:06:49;15.20;71.40
37658;DHT22;23500;53.268;8.308;2022-11-23T10:12:14;15.20;71.50
37658;DHT22;23500;53.268;8.308;2022-11-23T10:17:44;15.20;71.60
37658;DHT22;23500;53.268;8.308;2022-11-23T10:25:59;15.10;71.80
37658;DHT22;23500;53.268;8.308;2022-11-23T10:28:28;15.10;71.80
37658;DHT22;23500;53.268;8.308;2022-11-23T10:31:13;15.10;71.80
37658;DHT22;23500;53.268;8.308;2022-11-23T10:33:50;15.10;71.90
37658;DHT22;23500;53.268;8.308;2022-11-23T10:36:17;15.10;71.90
37658;DHT22;23500;53.268;8.308;2022-11-23T10:38:43;15.10;71.90
37658;DHT22;23500;53.268;8.308;2022-11-23T10:41:11;15.10;72.00
37658;DHT22;23500;53.268;8.308;2022-11-23T10:44:02;15.10;72.00
37658;DHT22;23500;53.268;8.308;2022-11-23T10:46:31;15.10;72.10
37658;DHT22;23500;53.268;8.308;2022-11-23T10:51:33;15.10;72.10
37658;DHT22;23500;53.268;8.308;2022-11-23T10:54:01;15.10;72.10
37658;DHT22;23500;53.268;8.308;2022-11-23T10:56:27;15.10;72.10
37658;DHT22;23500;53.268;8.308;2022-11-23T10:58:53;15.00;72.10
37658;DHT22;23500;53.268;8.308;2022-11-23T11:01:24;15.00;72.20
37658;DHT22;23500;53.268;8.308;2022-11-23T11:03:52;15.00;72.20
37658;DHT22;23500;53.268;8.308;2022-11-23T11:06:26;15.00;72.10
37658;DHT22;23500;53.268;8.308;2022-11-23T11:08:57;15.00;72.10
37658;DHT22;23500;53.268;8.308;2022-11-23T11:11:35;15.00;72.20
37658;DHT22;23500;53.268;8.308;2022-11-23T11:16:55;15.00;72.20
37658;DHT22;23500;53.268;8.308;2022-11-23T11:19:34;15.00;72.20
37658;DHT22;23500;53.268;8.308;2022-11-23T11:22:11;15.00;72.30
37658;DHT22;23500;53.268;8.308;2022-11-23T11:24:48;15.00;72.30
37658;DHT22;23500;53.268;8.308;2022-11-23T11:27:16;15.00;72.30
37658;DHT22;23500;53.268;8.308;2022-11-23T11:42:39;14.90;72.40
37658;DHT22;23500;53.268;8.308;2022-11-23T11:50:29;14.90;72.60
37658;DHT22;23500;53.268;8.308;2022-11-23T11:53:05;14.90;72.60
37658;DHT22;23500;53.268;8.308;2022-11-23T11:55:54;14.90;72.50
37658;DHT22;23500;53.268;8.308;2022-11-23T11:58:23;14.90;72.60
37658;DHT22;23500;53.268;8.308;2022-11-23T12:00:59;14.90;72.60
37658;DHT22;23500;53.268;8.308;2022-11-23T12:03:42;14.90;72.80
37658;DHT22;23500;53.268;8.308;2022-11-23T12:06:32;14.90;72.70
37658;DHT22;23500;53.268;8.308;2022-11-23T12:09:02;14.90;72.80
37658;DHT22;23500;53.268;8.308;2022-11-23T12:11:31;14.90;72.90
37658;DHT22;23500;53.268;8.308;2022-11-23T12:14:01;14.90;72.90
37658;DHT22;23500;53.268;8.308;2022-11-23T12:19:16;14.90;72.80
37658;DHT22;23500;53.268;8.308;2022-11-23T12:27:04;14.90;72.70
37658;DHT22;23500;53.268;8.308;2022-11-23T12:29:42;14.90;72.80
37658;DHT22;23500;53.268;8.308;2022-11-23T12:43:08;14.90;72.70
37658;DHT22;23500;53.268;8.308;2022-11-23T12:45:58;14.90;72.60
37658;DHT22;23500;53.268;8.308;2022-11-23T12:51:30;14.80;72.60
37658;DHT22;23500;53.268;8.308;2022-11-23T12:59:10;14.80;72.60
37658;DHT22;23500;53.268;8.308;2022-11-23T13:01:41;14.80;72.50
37658;DHT22;23500;53.268;8.308;2022-11-23T13:07:47;14.80;72.60
37658;DHT22;23500;53.268;8.308;2022-11-23T13:15:57;14.80;72.50
37658;DHT22;23500;53.268;8.308;2022-11-23T13:21:34;14.80;72.80
37658;DHT22;23500;53.268;8.308;2022-11-23T13:24:01;15.10;72.70
37658;DHT22;23500;53.268;8.308;2022-11-23T13:26:28;15.40;71.80
37658;DHT22;23500;53.268;8.308;2022-11-23T13:28:56;15.80;70.50
37658;DHT22;23500;53.268;8.308;2022-11-23T13:31:31;16.30;69.20
37658;DHT22;23500;53.268;8.308;2022-11-23T13:33:59;16.80;67.50
37658;DHT22;23500;53.268;8.308;2022-11-23T13:38:58;17.80;64.40
37658;DHT22;23500;53.268;8.308;2022-11-23T13:44:28;18.70;61.50
37658;DHT22;23500;53.268;8.308;2022-11-23T13:47:06;19.10;60.40
37658;DHT22;23500;53.268;8.308;2022-11-23T13:49:49;19.50;59.30
37658;DHT22;23500;53.268;8.308;2022-11-23T13:55:19;19.90;58.10
37658;DHT22;23500;53.268;8.308;2022-11-23T14:00:49;19.90;58.00
37658;DHT22;23500;53.268;8.308;2022-11-23T14:11:49;19.40;58.80
37658;DHT22;23500;53.268;8.308;2022-11-23T14:14:20;19.30;59.10
37658;DHT22;23500;53.268;8.308;2022-11-23T14:25:16;18.70;60.40
37658;DHT22;23500;53.268;8.308;2022-11-23T14:33:50;18.30;61.70
37658;DHT22;23500;53.268;8.308;2022-11-23T14:39:08;18.00;59.90
37658;DHT22;23500;53.268;8.308;2022-11-23T14:41:40;17.90;60.10
37658;DHT22;23500;53.268;8.308;2022-11-23T14:44:12;17.70;60.10
37658;DHT22;23500;53.268;8.308;2022-11-23T14:47:02;17.60;60.90
37658;DHT22;23500;53.268;8.308;2022-11-23T14:49:28;17.50;60.70
37658;DHT22;23500;53.268;8.308;2022-11-23T14:51:54;17.40;61.80
37658;DHT22;23500;53.268;8.308;2022-11-23T14:54:20;17.40;63.10
37658;DHT22;23500;53.268;8.308;2022-11-23T14:56:47;17.40;64.00
37658;DHT22;23500;53.268;8.308;2022-11-23T14:59:21;17.50;64.10
37658;DHT22;23500;53.268;8.308;2022-11-23T15:01:51;17.50;64.20
37658;DHT22;23500;53.268;8.308;2022-11-23T15:04:28;17.60;64.00
37658;DHT22;23500;53.268;8.308;2022-11-23T15:07:17;17.70;64.00
37658;DHT22;23500;53.268;8.308;2022-11-23T15:10:06;17.80;63.70
37658;DHT22;23500;53.268;8.308;2022-11-23T15:12:46;17.80;63.40
37658;DHT22;23500;53.268;8.308;2022-11-23T15:15:27;17.90;63.20
37658;DHT22;23500;53.268;8.308;2022-11-23T15:18:02;17.90;63.00
37658;DHT22;23500;53.268;8.308;2022-11-23T15:20:41;18.00;63.00
37658;DHT22;23500;53.268;8.308;2022-11-23T15:23:23;18.00;62.90
37658;DHT22;23500;53.268;8.308;2022-11-23T15:25:54;18.00;62.90
37658;DHT22;23500;53.268;8.308;2022-11-23T15:28:26;18.00;62.70
37658;DHT22;23500;53.268;8.308;2022-11-23T15:30:52;18.00;62.60
37658;DHT22;23500;53.268;8.308;2022-11-23T15:33:20;18.00;62.80
37658;DHT22;23500;53.268;8.308;2022-11-23T15:35:47;18.00;62.80
37658;DHT22;23500;53.268;8.308;2022-11-23T15:38:14;17.90;62.80
37658;DHT22;23500;53.268;8.308;2022-11-23T15:40:43;17.90;62.60
37658;DHT22;23500;53.268;8.308;2022-11-23T15:43:14;17.80;62.00
37658;DHT22;23500;53.268;8.308;2022-11-23T15:48:12;17.60;59.60
37658;DHT22;23500;53.268;8.308;2022-11-23T15:50:58;17.50;59.50
37658;DHT22;23500;53.268;8.308;2022-11-23T15:53:26;17.40;59.70
37658;DHT22;23500;53.268;8.308;2022-11-23T15:55:56;17.40;59.80
37658;DHT22;23500;53.268;8.308;2022-11-23T15:58:23;17.30;59.90
37658;DHT22;23500;53.268;8.308;2022-11-23T16:00:55;17.30;60.20
37658;DHT22;23500;53.268;8.308;2022-11-23T16:03:29;17.20;62.20
37658;DHT22;23500;53.268;8.308;2022-11-23T16:06:24;17.30;63.60
37658;DHT22;23500;53.268;8.308;2022-11-23T16:08:52;17.20;64.20
37658;DHT22;23500;53.268;8.308;2022-11-23T16:11:42;17.30;65.00
37658;DHT22;23500;53.268;8.308;2022-11-23T16:14:17;17.30;64.40
37658;DHT22;23500;53.268;8.308;2022-11-23T16:16:45;17.30;64.20
37658;DHT22;23500;53.268;8.308;2022-11-23T16:19:20;17.30;64.20
37658;DHT22;23500;53.268;8.308;2022-11-23T16:21:48;17.40;64.40
37658;DHT22;23500;53.268;8.308;2022-11-23T16:24:19;17.40;64.30
37658;DHT22;23500;53.268;8.308;2022-11-23T16:26:46;17.40;62.70
37658;DHT22;23500;53.268;8.308;2022-11-23T16:29:38;17.40;64.00
37658;DHT22;23500;53.268;8.308;2022-11-23T16:32:04;17.40;60.30
37658;DHT22;23500;53.268;8.308;2022-11-23T16:34:33;17.40;62.40
37658;DHT22;23500;53.268;8.308;2022-11-23T16:37:00;17.30;60.60
37658;DHT22;23500;53.268;8.308;2022-11-23T16:39:28;17.30;59.80
37658;DHT22;23500;53.268;8.308;2022-11-23T16:41:53;17.20;59.60
37658;DHT22;23500;53.268;8.308;2022-11-23T16:44:19;17.20;59.90
37658;DHT22;23500;53.268;8.308;2022-11-23T16:46:45;17.10;58.70
37658;DHT22;23500;53.268;8.308;2022-11-23T16:49:22;17.10;58.30
37658;DHT22;23500;53.268;8.308;2022-11-23T16:51:51;17.10;58.80
37658;DHT22;23500;53.268;8.308;2022-11-23T16:54:19;17.00;58.80
37658;DHT22;23500;53.268;8.308;2022-11-23T16:56:44;17.00;58.70
37658;DHT22;23500;53.268;8.308;2022-11-23T16:59:15;16.90;58.50
37658;DHT22;23500;53.268;8.308;2022-11-23T17:01:44;16.90;58.90
37658;DHT22;23500;53.268;8.308;2022-11-23T17:04:13;16.80;58.30
37658;DHT22;23500;53.268;8.308;2022-11-23T17:06:39;16.80;58.50
37658;DHT22;23500;53.268;8.308;2022-11-23T17:09:07;16.80;58.50
37658;DHT22;23500;53.268;8.308;2022-11-23T17:11:35;16.70;58.40
37658;DHT22;23500;53.268;8.308;2022-11-23T17:14:01;16.70;58.60
37658;DHT22;23500;53.268;8.308;2022-11-23T17:16:29;16.70;58.50
37658;DHT22;23500;53.268;8.308;2022-11-23T17:18:55;16.70;58.70
37658;DHT22;23500;53.268;8.308;2022-11-23T17:21:20;16.70;59.80
37658;DHT22;23500;53.268;8.308;2022-11-23T17:23:46;16.60;58.50
37658;DHT22;23500;53.268;8.308;2022-11-23T17:26:27;16.60;58.30
37658;DHT22;23500;53.268;8.308;2022-11-23T17:28:54;16.60;58.80
37658;DHT22;23500;53.268;8.308;2022-11-23T17:31:20;16.60;58.60
37658;DHT22;23500;53.268;8.308;2022-11-23T17:33:46;16.60;58.70
37658;DHT22;23500;53.268;8.308;2022-11-23T17:36:11;16.50;58.60
37658;DHT22;23500;53.268;8.308;2022-11-23T17:38:37;16.50;58.70
37658;DHT22;23500;53.268;8.308;2022-11-23T17:41:03;16.50;59.00
37658;DHT22;23500;53.268;8.308;2022-11-23T17:43:29;16.50;59.20
37658;DHT22;23500;53.268;8.308;2022-11-23T17:45:55;16.40;59.40
37658;DHT22;23500;53.268;8.308;2022-11-23T17:48:21;16.40;59.60
37658;DHT22;23500;53.268;8.308;2022-11-23T17:50:47;16.40;60.20
37658;DHT22;23500;53.268;8.308;2022-11-23T17:53:13;16.30;59.90